sensor_id;sensor_type;location;lat;lon;timestamp;P1;durP1;ratioP1;P2;durP2;ratioP2
71290;SDS011;59073;51.994;4.448;2024-01-25T00:01:41;12.31;;;7.52;;
71290;SDS011;59073;51.994;4.448;2024-01-25T00:04:06;11.43;;;7.01;;
71290;SDS011;59073;51.994;4.448;2024-01-25T00:06:32;11.86;;;7.19;;
71290;SDS011;59073;51.994;4.448;2024-01-25T00:08:57;12.10;;;7.21;;
71290;SDS011;59073;51.994;4.448;2024-01-25T00:11:23;12.28;;;7.44;;
71290;SDS011;59073;51.994;4.448;2024-01-25T00:13:49;11.32;;;6.98;;
71290;SDS011;59073;51.994;4.448;2024-01-25T00:16:15;10.70;;;6.64;;
71290;SDS011;59073;51.994;4.448;2024-01-25T00:18:40;10.80;;;6.73;;
71290;SDS011;59073;51.994;4.448;2024-01-25T00:21:08;10.63;;;6.75;;
71290;SDS011;59073;51.994;4.448;2024-01-25T00:23:33;11.64;;;7.27;;
71290;SDS011;59073;51.994;4.448;2024-01-25T00:25:58;11.31;;;7.00;;
71290;SDS011;59073;51.994;4.448;2024-01-25T00:28:28;10.79;;;6.75;;
71290;SDS011;59073;51.994;4.448;2024-01-25T00:30:54;10.62;;;6.76;;
71290;SDS011;59073;51.994;4.448;2024-01-25T00:33:19;12.62;;;7.77;;
71290;SDS011;59073;51.994;4.448;2024-01-25T00:35:45;11.71;;;7.08;;
71290;SDS011;59073;51.994;4.448;2024-01-25T00:38:10;12.66;;;7.66;;
71290;SDS011;59073;51.994;4.448;2024-01-25T00:40:36;12.19;;;7.49;;
71290;SDS011;59073;51.994;4.448;2024-01-25T00:43:02;11.27;;;6.94;;
71290;SDS011;59073;51.994;4.448;2024-01-25T00:45:28;11.08;;;6.87;;
71290;SDS011;59073;51.994;4.448;2024-01-25T00:47:54;11.03;;;7.02;;
71290;SDS011;59073;51.994;4.448;2024-01-25T00:50:19;10.75;;;6.74;;
71290;SDS011;59073;51.994;4.448;2024-01-25T00:52:50;10.78;;;6.79;;
71290;SDS011;59073;51.994;4.448;2024-01-25T00:55:16;11.57;;;7.30;;
71290;SDS011;59073;51.994;4.448;2024-01-25T00:57:42;10.79;;;6.83;;
71290;SDS011;59073;51.994;4.448;2024-01-25T01:00:09;10.53;;;6.68;;
71290;SDS011;59073;51.994;4.448;2024-01-25T01:02:35;11.28;;;7.02;;
71290;SDS011;59073;51.994;4.448;2024-01-25T01:05:04;10.82;;;6.77;;
71290;SDS011;59073;51.994;4.448;2024-01-25T01:07:30;11.21;;;7.01;;
71290;SDS011;59073;51.994;4.448;2024-01-25T01:09:56;10.35;;;6.50;;
71290;SDS011;59073;51.994;4.448;2024-01-25T01:12:21;12.19;;;7.46;;
71290;SDS011;59073;51.994;4.448;2024-01-25T01:14:47;12.09;;;7.42;;
71290;SDS011;59073;51.994;4.448;2024-01-25T01:17:13;12.41;;;7.78;;
71290;SDS011;59073;51.994;4.448;2024-01-25T01:19:39;11.22;;;7.02;;
71290;SDS011;59073;51.994;4.448;2024-01-25T01:22:04;11.26;;;7.11;;
71290;SDS011;59073;51.994;4.448;2024-01-25T01:24:29;11.51;;;7.11;;
71290;SDS011;59073;51.994;4.448;2024-01-25T01:26:55;13.49;;;8.15;;
71290;SDS011;59073;51.994;4.448;2024-01-25T01:29:20;10.75;;;6.63;;
71290;SDS011;59073;51.994;4.448;2024-01-25T01:31:46;11.12;;;6.98;;
71290;SDS011;59073;51.994;4.448;2024-01-25T01:34:11;11.60;;;7.20;;
71290;SDS011;59073;51.994;4.448;2024-01-25T01:36:42;10.77;;;6.68;;
71290;SDS011;59073;51.994;4.448;2024-01-25T01:39:08;11.96;;;7.37;;
71290;SDS011;59073;51.994;4.448;2024-01-25T01:41:34;12.89;;;7.83;;
71290;SDS011;59073;51.994;4.448;2024-01-25T01:43:59;14.45;;;8.70;;
71290;SDS011;59073;51.994;4.448;2024-01-25T01:49:02;12.00;;;7.17;;
71290;SDS011;59073;51.994;4.448;2024-01-25T01:51:29;12.27;;;7.39;;
71290;SDS011;59073;51.994;4.448;2024-01-25T01:53:56;11.79;;;7.23;;
71290;SDS011;59073;51.994;4.448;2024-01-25T01:56:26;11.93;;;7.35;;
71290;SDS011;59073;51.994;4.448;2024-01-25T01:58:57;11.98;;;7.27;;
71290;SDS011;59073;51.994;4.448;2024-01-25T02:01:24;12.56;;;7.71;;
71290;SDS011;59073;51.994;4.448;2024-01-25T02:03:50;13.15;;;7.94;;
71290;SDS011;59073;51.994;4.448;2024-01-25T02:06:16;12.42;;;7.62;;
71290;SDS011;59073;51.994;4.448;2024-01-25T02:08:42;12.06;;;7.46;;
71290;SDS011;59073;51.994;4.448;2024-01-25T02:11:10;12.56;;;7.64;;
71290;SDS011;59073;51.994;4.448;2024-01-25T02:13:37;11.76;;;7.13;;
71290;SDS011;59073;51.994;4.448;2024-01-25T02:16:03;11.39;;;7.13;;
71290;SDS011;59073;51.994;4.448;2024-01-25T02:18:29;11.98;;;7.45;;
71290;SDS011;59073;51.994;4.448;2024-01-25T02:20:55;10.82;;;6.71;;
71290;SDS011;59073;51.994;4.448;2024-01-25T02:23:21;12.22;;;7.59;;
71290;SDS011;59073;51.994;4.448;2024-01-25T02:25:46;11.65;;;7.23;;
71290;SDS011;59073;51.994;4.448;2024-01-25T02:28:12;10.76;;;6.75;;
71290;SDS011;59073;51.994;4.448;2024-01-25T02:30:37;10.72;;;6.64;;
71290;SDS011;59073;51.994;4.448;2024-01-25T02:33:03;11.94;;;7.37;;
71290;SDS011;59073;51.994;4.448;2024-01-25T02:35:28;10.42;;;6.49;;
71290;SDS011;59073;51.994;4.448;2024-01-25T02:37:53;12.11;;;7.56;;
71290;SDS011;59073;51.994;4.448;2024-01-25T02:40:19;11.13;;;6.95;;
71290;SDS011;59073;51.994;4.448;2024-01-25T02:42:44;10.42;;;6.60;;
71290;SDS011;59073;51.994;4.448;2024-01-25T02:45:10;10.51;;;6.54;;
71290;SDS011;59073;51.994;4.448;2024-01-25T02:47:35;10.48;;;6.53;;
71290;SDS011;59073;51.994;4.448;2024-01-25T02:50:00;10.83;;;6.76;;
71290;SDS011;59073;51.994;4.448;2024-01-25T02:52:26;11.37;;;7.03;;
71290;SDS011;59073;51.994;4.448;2024-01-25T02:54:51;11.12;;;6.88;;
71290;SDS011;59073;51.994;4.448;2024-01-25T02:57:17;13.04;;;7.99;;
71290;SDS011;59073;51.994;4.448;2024-01-25T02:59:43;11.84;;;7.30;;
71290;SDS011;59073;51.994;4.448;2024-01-25T03:02:08;10.93;;;6.86;;
71290;SDS011;59073;51.994;4.448;2024-01-25T03:04:34;9.33;;;5.88;;
71290;SDS011;59073;51.994;4.448;2024-01-25T03:06:59;9.89;;;6.29;;
71290;SDS011;59073;51.994;4.448;2024-01-25T03:09:25;9.72;;;6.18;;
71290;SDS011;59073;51.994;4.448;2024-01-25T03:11:50;9.34;;;5.99;;
71290;SDS011;59073;51.994;4.448;2024-01-25T03:14:15;9.04;;;5.85;;
71290;SDS011;59073;51.994;4.448;2024-01-25T03:16:41;9.28;;;5.98;;
71290;SDS011;59073;51.994;4.448;2024-01-25T03:19:06;8.50;;;5.47;;
71290;SDS011;59073;51.994;4.448;2024-01-25T03:21:32;9.63;;;6.20;;
71290;SDS011;59073;51.994;4.448;2024-01-25T03:23:57;11.25;;;6.90;;
71290;SDS011;59073;51.994;4.448;2024-01-25T03:26:23;11.05;;;6.88;;
71290;SDS011;59073;51.994;4.448;2024-01-25T03:28:48;9.08;;;5.70;;
71290;SDS011;59073;51.994;4.448;2024-01-25T03:31:13;8.91;;;5.63;;
71290;SDS011;59073;51.994;4.448;2024-01-25T03:33:39;9.53;;;6.03;;
71290;SDS011;59073;51.994;4.448;2024-01-25T03:36:05;7.88;;;5.07;;
71290;SDS011;59073;51.994;4.448;2024-01-25T03:38:31;7.59;;;4.86;;
71290;SDS011;59073;51.994;4.448;2024-01-25T03:40:56;8.19;;;5.24;;
71290;SDS011;59073;51.994;4.448;2024-01-25T03:43:26;9.13;;;5.80;;
71290;SDS011;59073;51.994;4.448;2024-01-25T03:45:51;9.00;;;5.71;;
71290;SDS011;59073;51.994;4.448;2024-01-25T03:48:17;8.10;;;5.16;;
71290;SDS011;59073;51.994;4.448;2024-01-25T03:50:42;8.59;;;5.48;;
71290;SDS011;59073;51.994;4.448;2024-01-25T03:53:08;9.34;;;5.95;;
71290;SDS011;59073;51.994;4.448;2024-01-25T03:55:33;8.83;;;5.64;;
71290;SDS011;59073;51.994;4.448;2024-01-25T03:57:59;8.94;;;5.69;;
71290;SDS011;59073;51.994;4.448;2024-01-25T04:00:25;8.52;;;5.50;;
71290;SDS011;59073;51.994;4.448;2024-01-25T04:02:50;7.25;;;4.77;;
71290;SDS011;59073;51.994;4.448;2024-01-25T04:05:16;8.32;;;5.56;;
71290;SDS011;59073;51.994;4.448;2024-01-25T04:07:42;7.15;;;4.85;;
71290;SDS011;59073;51.994;4.448;2024-01-25T04:10:08;8.53;;;5.59;;
71290;SDS011;59073;51.994;4.448;2024-01-25T04:12:33;9.05;;;5.77;;
71290;SDS011;59073;51.994;4.448;2024-01-25T04:14:59;10.14;;;6.48;;
71290;SDS011;59073;51.994;4.448;2024-01-25T04:17:24;8.34;;;5.33;;
71290;SDS011;59073;51.994;4.448;2024-01-25T04:19:50;7.60;;;4.90;;
71290;SDS011;59073;51.994;4.448;2024-01-25T04:22:16;8.66;;;5.63;;
71290;SDS011;59073;51.994;4.448;2024-01-25T04:24:41;8.02;;;5.21;;
71290;SDS011;59073;51.994;4.448;2024-01-25T04:27:08;8.56;;;5.52;;
71290;SDS011;59073;51.994;4.448;2024-01-25T04:29:33;8.11;;;5.26;;
71290;SDS011;59073;51.994;4.448;2024-01-25T04:31:59;9.02;;;5.87;;
71290;SDS011;59073;51.994;4.448;2024-01-25T04:34:24;8.12;;;5.44;;
71290;SDS011;59073;51.994;4.448;2024-01-25T04:36:50;7.47;;;5.05;;
71290;SDS011;59073;51.994;4.448;2024-01-25T04:39:15;7.06;;;4.66;;
71290;SDS011;59073;51.994;4.448;2024-01-25T04:41:40;8.56;;;5.62;;
71290;SDS011;59073;51.994;4.448;2024-01-25T04:44:06;7.92;;;5.16;;
71290;SDS011;59073;51.994;4.448;2024-01-25T04:46:31;9.02;;;5.90;;
71290;SDS011;59073;51.994;4.448;2024-01-25T04:49:02;8.85;;;5.77;;
71290;SDS011;59073;51.994;4.448;2024-01-25T04:51:28;7.50;;;5.02;;
71290;SDS011;59073;51.994;4.448;2024-01-25T04:53:53;8.65;;;5.74;;
71290;SDS011;59073;51.994;4.448;2024-01-25T04:56:19;8.92;;;5.88;;
71290;SDS011;59073;51.994;4.448;2024-01-25T04:58:44;9.18;;;6.03;;
71290;SDS011;59073;51.994;4.448;2024-01-25T05:01:09;7.25;;;4.69;;
71290;SDS011;59073;51.994;4.448;2024-01-25T05:03:35;6.80;;;4.41;;
71290;SDS011;59073;51.994;4.448;2024-01-25T05:06:01;6.86;;;4.47;;
71290;SDS011;59073;51.994;4.448;2024-01-25T05:08:26;8.10;;;5.26;;
71290;SDS011;59073;51.994;4.448;2024-01-25T05:10:52;8.34;;;5.45;;
71290;SDS011;59073;51.994;4.448;2024-01-25T05:13:18;7.93;;;5.25;;
71290;SDS011;59073;51.994;4.448;2024-01-25T05:15:44;8.40;;;5.57;;
71290;SDS011;59073;51.994;4.448;2024-01-25T05:18:09;7.82;;;5.25;;
71290;SDS011;59073;51.994;4.448;2024-01-25T05:20:35;7.79;;;5.24;;
71290;SDS011;59073;51.994;4.448;2024-01-25T05:23:02;6.92;;;4.76;;
71290;SDS011;59073;51.994;4.448;2024-01-25T05:25:29;5.62;;;3.93;;
71290;SDS011;59073;51.994;4.448;2024-01-25T05:27:55;6.43;;;4.53;;
71290;SDS011;59073;51.994;4.448;2024-01-25T05:30:21;6.46;;;4.46;;
71290;SDS011;59073;51.994;4.448;2024-01-25T05:32:48;6.98;;;4.72;;
71290;SDS011;59073;51.994;4.448;2024-01-25T05:35:14;7.15;;;4.90;;
71290;SDS011;59073;51.994;4.448;2024-01-25T05:37:41;8.09;;;5.51;;
71290;SDS011;59073;51.994;4.448;2024-01-25T05:40:07;8.85;;;6.07;;
71290;SDS011;59073;51.994;4.448;2024-01-25T05:42:33;9.43;;;6.40;;
71290;SDS011;59073;51.994;4.448;2024-01-25T05:44:58;9.64;;;6.61;;
71290;SDS011;59073;51.994;4.448;2024-01-25T05:47:23;8.69;;;6.25;;
71290;SDS011;59073;51.994;4.448;2024-01-25T05:49:49;9.56;;;6.57;;
71290;SDS011;59073;51.994;4.448;2024-01-25T05:52:14;9.05;;;6.33;;
71290;SDS011;59073;51.994;4.448;2024-01-25T05:54:40;7.95;;;5.58;;
71290;SDS011;59073;51.994;4.448;2024-01-25T05:57:05;8.44;;;5.98;;
71290;SDS011;59073;51.994;4.448;2024-01-25T05:59:31;8.80;;;6.21;;
71290;SDS011;59073;51.994;4.448;2024-01-25T06:01:56;8.48;;;5.97;;
71290;SDS011;59073;51.994;4.448;2024-01-25T06:04:22;8.50;;;5.90;;
71290;SDS011;59073;51.994;4.448;2024-01-25T06:06:47;7.58;;;5.50;;
71290;SDS011;59073;51.994;4.448;2024-01-25T06:09:12;8.21;;;5.81;;
71290;SDS011;59073;51.994;4.448;2024-01-25T06:11:40;6.99;;;4.96;;
71290;SDS011;59073;51.994;4.448;2024-01-25T06:14:06;7.79;;;5.60;;
71290;SDS011;59073;51.994;4.448;2024-01-25T06:16:31;8.32;;;5.92;;
71290;SDS011;59073;51.994;4.448;2024-01-25T06:18:57;8.27;;;5.77;;
71290;SDS011;59073;51.994;4.448;2024-01-25T06:21:24;8.68;;;6.18;;
71290;SDS011;59073;51.994;4.448;2024-01-25T06:23:50;7.65;;;5.51;;
71290;SDS011;59073;51.994;4.448;2024-01-25T06:26:15;7.65;;;5.54;;
71290;SDS011;59073;51.994;4.448;2024-01-25T06:28:41;8.88;;;6.46;;
71290;SDS011;59073;51.994;4.448;2024-01-25T06:31:06;7.70;;;5.85;;
71290;SDS011;59073;51.994;4.448;2024-01-25T06:33:32;7.21;;;5.52;;
71290;SDS011;59073;51.994;4.448;2024-01-25T06:35:57;7.95;;;5.89;;
71290;SDS011;59073;51.994;4.448;2024-01-25T06:38:23;8.43;;;6.22;;
71290;SDS011;59073;51.994;4.448;2024-01-25T06:40:48;7.95;;;5.99;;
71290;SDS011;59073;51.994;4.448;2024-01-25T06:43:14;8.11;;;6.17;;
71290;SDS011;59073;51.994;4.448;2024-01-25T06:45:39;6.87;;;5.36;;
71290;SDS011;59073;51.994;4.448;2024-01-25T06:48:06;6.79;;;5.37;;
71290;SDS011;59073;51.994;4.448;2024-01-25T06:50:33;7.02;;;5.59;;
71290;SDS011;59073;51.994;4.448;2024-01-25T06:52:59;7.63;;;6.16;;
71290;SDS011;59073;51.994;4.448;2024-01-25T06:55:24;7.27;;;5.93;;
71290;SDS011;59073;51.994;4.448;2024-01-25T06:57:50;7.30;;;5.89;;
71290;SDS011;59073;51.994;4.448;2024-01-25T07:00:15;6.19;;;5.00;;
71290;SDS011;59073;51.994;4.448;2024-01-25T07:02:41;7.31;;;5.78;;
71290;SDS011;59073;51.994;4.448;2024-01-25T07:05:07;6.69;;;5.31;;
71290;SDS011;59073;51.994;4.448;2024-01-25T07:07:33;7.20;;;5.62;;
71290;SDS011;59073;51.994;4.448;2024-01-25T07:09:59;7.26;;;5.67;;
71290;SDS011;59073;51.994;4.448;2024-01-25T07:12:25;7.04;;;5.46;;
71290;SDS011;59073;51.994;4.448;2024-01-25T07:14:51;6.49;;;5.08;;
71290;SDS011;59073;51.994;4.448;2024-01-25T07:17:16;7.25;;;5.60;;
71290;SDS011;59073;51.994;4.448;2024-01-25T07:19:42;6.96;;;5.48;;
71290;SDS011;59073;51.994;4.448;2024-01-25T07:22:07;6.90;;;5.54;;
71290;SDS011;59073;51.994;4.448;2024-01-25T07:24:33;7.06;;;5.69;;
71290;SDS011;59073;51.994;4.448;2024-01-25T07:26:58;7.12;;;5.83;;
71290;SDS011;59073;51.994;4.448;2024-01-25T07:29:24;7.53;;;6.21;;
71290;SDS011;59073;51.994;4.448;2024-01-25T07:31:49;6.64;;;5.53;;
71290;SDS011;59073;51.994;4.448;2024-01-25T07:34:14;6.40;;;5.42;;
71290;SDS011;59073;51.994;4.448;2024-01-25T07:36:40;6.97;;;5.93;;
71290;SDS011;59073;51.994;4.448;2024-01-25T07:39:05;7.65;;;6.32;;
71290;SDS011;59073;51.994;4.448;2024-01-25T07:41:31;7.38;;;6.17;;
71290;SDS011;59073;51.994;4.448;2024-01-25T07:43:56;7.64;;;6.38;;
71290;SDS011;59073;51.994;4.448;2024-01-25T07:46:22;8.43;;;7.06;;
71290;SDS011;59073;51.994;4.448;2024-01-25T07:48:49;7.07;;;6.10;;
71290;SDS011;59073;51.994;4.448;2024-01-25T07:51:15;7.18;;;6.09;;
71290;SDS011;59073;51.994;4.448;2024-01-25T07:53:40;7.01;;;6.03;;
71290;SDS011;59073;51.994;4.448;2024-01-25T07:56:09;6.41;;;5.59;;
71290;SDS011;59073;51.994;4.448;2024-01-25T07:58:36;6.56;;;5.83;;
71290;SDS011;59073;51.994;4.448;2024-01-25T08:01:05;5.88;;;5.25;;
71290;SDS011;59073;51.994;4.448;2024-01-25T08:03:31;6.57;;;5.72;;
71290;SDS011;59073;51.994;4.448;2024-01-25T08:05:58;6.85;;;5.92;;
71290;SDS011;59073;51.994;4.448;2024-01-25T08:08:24;7.21;;;6.05;;
71290;SDS011;59073;51.994;4.448;2024-01-25T08:10:49;7.55;;;6.33;;
71290;SDS011;59073;51.994;4.448;2024-01-25T08:13:15;7.63;;;6.35;;
71290;SDS011;59073;51.994;4.448;2024-01-25T08:15:40;8.55;;;6.96;;
71290;SDS011;59073;51.994;4.448;2024-01-25T08:18:06;8.97;;;7.12;;
71290;SDS011;59073;51.994;4.448;2024-01-25T08:20:31;8.08;;;6.64;;
71290;SDS011;59073;51.994;4.448;2024-01-25T08:22:57;7.22;;;6.01;;
71290;SDS011;59073;51.994;4.448;2024-01-25T08:25:22;6.80;;;5.77;;
71290;SDS011;59073;51.994;4.448;2024-01-25T08:27:48;6.79;;;5.87;;
71290;SDS011;59073;51.994;4.448;2024-01-25T08:30:14;6.41;;;5.66;;
71290;SDS011;59073;51.994;4.448;2024-01-25T08:32:40;5.72;;;5.10;;
71290;SDS011;59073;51.994;4.448;2024-01-25T08:35:05;7.06;;;6.19;;
71290;SDS011;59073;51.994;4.448;2024-01-25T08:37:31;7.34;;;6.29;;
71290;SDS011;59073;51.994;4.448;2024-01-25T08:39:57;7.68;;;6.45;;
71290;SDS011;59073;51.994;4.448;2024-01-25T08:42:23;7.38;;;6.10;;
71290;SDS011;59073;51.994;4.448;2024-01-25T08:44:48;7.76;;;6.38;;
71290;SDS011;59073;51.994;4.448;2024-01-25T08:47:17;7.06;;;6.00;;
71290;SDS011;59073;51.994;4.448;2024-01-25T08:49:43;6.33;;;5.54;;
71290;SDS011;59073;51.994;4.448;2024-01-25T08:52:09;7.74;;;6.48;;
71290;SDS011;59073;51.994;4.448;2024-01-25T08:54:35;7.73;;;6.24;;
71290;SDS011;59073;51.994;4.448;2024-01-25T08:57:02;7.74;;;6.33;;
71290;SDS011;59073;51.994;4.448;2024-01-25T08:59:28;7.45;;;6.10;;
71290;SDS011;59073;51.994;4.448;2024-01-25T09:01:56;7.21;;;6.02;;
71290;SDS011;59073;51.994;4.448;2024-01-25T09:04:21;8.43;;;6.89;;
71290;SDS011;59073;51.994;4.448;2024-01-25T09:06:47;8.51;;;6.65;;
71290;SDS011;59073;51.994;4.448;2024-01-25T09:09:12;8.06;;;6.37;;
71290;SDS011;59073;51.994;4.448;2024-01-25T09:11:37;8.38;;;6.47;;
71290;SDS011;59073;51.994;4.448;2024-01-25T09:14:03;7.44;;;5.87;;
71290;SDS011;59073;51.994;4.448;2024-01-25T09:16:28;7.74;;;6.22;;
71290;SDS011;59073;51.994;4.448;2024-01-25T09:18:54;7.21;;;5.84;;
71290;SDS011;59073;51.994;4.448;2024-01-25T09:21:19;7.98;;;6.32;;
71290;SDS011;59073;51.994;4.448;2024-01-25T09:23:45;7.10;;;5.73;;
71290;SDS011;59073;51.994;4.448;2024-01-25T09:26:10;7.77;;;6.27;;
71290;SDS011;59073;51.994;4.448;2024-01-25T09:28:36;8.40;;;6.72;;
71290;SDS011;59073;51.994;4.448;2024-01-25T09:31:01;8.78;;;6.86;;
71290;SDS011;59073;51.994;4.448;2024-01-25T09:33:28;8.15;;;6.51;;
71290;SDS011;59073;51.994;4.448;2024-01-25T09:35:55;8.23;;;6.63;;
71290;SDS011;59073;51.994;4.448;2024-01-25T09:38:21;8.04;;;6.53;;
71290;SDS011;59073;51.994;4.448;2024-01-25T09:40:47;8.05;;;6.58;;
71290;SDS011;59073;51.994;4.448;2024-01-25T09:43:14;9.06;;;7.24;;
71290;SDS011;59073;51.994;4.448;2024-01-25T09:45:39;9.48;;;7.42;;
71290;SDS011;59073;51.994;4.448;2024-01-25T09:48:07;8.54;;;6.89;;
71290;SDS011;59073;51.994;4.448;2024-01-25T09:50:32;8.51;;;7.02;;
71290;SDS011;59073;51.994;4.448;2024-01-25T09:52:59;8.04;;;6.57;;
71290;SDS011;59073;51.994;4.448;2024-01-25T09:55:25;8.72;;;7.17;;
71290;SDS011;59073;51.994;4.448;2024-01-25T09:57:55;8.01;;;6.56;;
71290;SDS011;59073;51.994;4.448;2024-01-25T10:00:23;8.20;;;6.67;;
71290;SDS011;59073;51.994;4.448;2024-01-25T10:02:49;7.57;;;6.19;;
71290;SDS011;59073;51.994;4.448;2024-01-25T10:05:16;7.91;;;6.42;;
71290;SDS011;59073;51.994;4.448;2024-01-25T10:07:43;8.54;;;6.97;;
71290;SDS011;59073;51.994;4.448;2024-01-25T10:10:11;7.64;;;6.42;;
71290;SDS011;59073;51.994;4.448;2024-01-25T10:12:39;8.64;;;7.08;;
71290;SDS011;59073;51.994;4.448;2024-01-25T10:15:06;8.11;;;6.51;;
71290;SDS011;59073;51.994;4.448;2024-01-25T10:17:32;8.85;;;6.91;;
71290;SDS011;59073;51.994;4.448;2024-01-25T10:19:58;8.35;;;6.59;;
71290;SDS011;59073;51.994;4.448;2024-01-25T10:22:24;7.81;;;6.27;;
71290;SDS011;59073;51.994;4.448;2024-01-25T10:24:50;7.47;;;6.07;;
71290;SDS011;59073;51.994;4.448;2024-01-25T10:27:15;8.34;;;6.59;;
71290;SDS011;59073;51.994;4.448;2024-01-25T10:29:41;7.94;;;6.30;;
71290;SDS011;59073;51.994;4.448;2024-01-25T10:32:10;8.37;;;6.61;;
71290;SDS011;59073;51.994;4.448;2024-01-25T10:34:37;7.62;;;6.14;;
71290;SDS011;59073;51.994;4.448;2024-01-25T10:37:03;8.08;;;6.42;;
71290;SDS011;59073;51.994;4.448;2024-01-25T10:39:32;8.38;;;6.57;;
71290;SDS011;59073;51.994;4.448;2024-01-25T10:42:00;8.44;;;6.69;;
71290;SDS011;59073;51.994;4.448;2024-01-25T10:44:26;8.77;;;6.88;;
71290;SDS011;59073;51.994;4.448;2024-01-25T10:46:52;8.17;;;6.51;;
71290;SDS011;59073;51.994;4.448;2024-01-25T10:49:20;8.04;;;6.55;;
71290;SDS011;59073;51.994;4.448;2024-01-25T10:51:46;8.60;;;6.80;;
71290;SDS011;59073;51.994;4.448;2024-01-25T10:54:14;9.43;;;7.32;;
71290;SDS011;59073;51.994;4.448;2024-01-25T10:56:43;9.94;;;7.61;;
71290;SDS011;59073;51.994;4.448;2024-01-25T10:59:11;10.85;;;8.22;;
71290;SDS011;59073;51.994;4.448;2024-01-25T11:01:36;9.18;;;7.22;;
71290;SDS011;59073;51.994;4.448;2024-01-25T11:04:02;9.52;;;7.53;;
71290;SDS011;59073;51.994;4.448;2024-01-25T11:06:36;9.31;;;7.51;;
71290;SDS011;59073;51.994;4.448;2024-01-25T11:09:05;9.47;;;7.44;;
71290;SDS011;59073;51.994;4.448;2024-01-25T11:11:31;10.25;;;7.86;;
71290;SDS011;59073;51.994;4.448;2024-01-25T11:13:58;9.17;;;7.18;;
71290;SDS011;59073;51.994;4.448;2024-01-25T11:16:31;9.19;;;7.40;;
71290;SDS011;59073;51.994;4.448;2024-01-25T11:18:59;10.39;;;8.26;;
71290;SDS011;59073;51.994;4.448;2024-01-25T11:21:44;9.53;;;7.72;;
71290;SDS011;59073;51.994;4.448;2024-01-25T11:24:12;12.32;;;9.61;;
71290;SDS011;59073;51.994;4.448;2024-01-25T11:26:42;9.97;;;8.13;;
71290;SDS011;59073;51.994;4.448;2024-01-25T11:29:08;9.91;;;8.22;;
71290;SDS011;59073;51.994;4.448;2024-01-25T11:31:34;10.52;;;8.51;;
71290;SDS011;59073;51.994;4.448;2024-01-25T11:34:00;10.52;;;8.46;;
71290;SDS011;59073;51.994;4.448;2024-01-25T11:36:26;11.37;;;9.11;;
71290;SDS011;59073;51.994;4.448;2024-01-25T11:38:53;11.08;;;8.95;;
71290;SDS011;59073;51.994;4.448;2024-01-25T11:41:19;11.32;;;9.17;;
71290;SDS011;59073;51.994;4.448;2024-01-25T11:43:45;10.80;;;8.28;;
71290;SDS011;59073;51.994;4.448;2024-01-25T11:46:10;10.81;;;8.71;;
71290;SDS011;59073;51.994;4.448;2024-01-25T11:48:40;9.78;;;8.05;;
71290;SDS011;59073;51.994;4.448;2024-01-25T11:51:06;10.21;;;8.33;;
71290;SDS011;59073;51.994;4.448;2024-01-25T11:53:35;10.14;;;8.11;;
71290;SDS011;59073;51.994;4.448;2024-01-25T11:56:00;10.15;;;8.09;;
71290;SDS011;59073;51.994;4.448;2024-01-25T11:58:27;10.57;;;8.02;;
71290;SDS011;59073;51.994;4.448;2024-01-25T12:00:52;9.81;;;7.84;;
71290;SDS011;59073;51.994;4.448;2024-01-25T12:03:19;8.82;;;7.03;;
71290;SDS011;59073;51.994;4.448;2024-01-25T12:05:46;9.85;;;7.88;;
71290;SDS011;59073;51.994;4.448;2024-01-25T12:08:12;9.45;;;7.59;;
71290;SDS011;59073;51.994;4.448;2024-01-25T12:10:38;9.53;;;7.63;;
71290;SDS011;59073;51.994;4.448;2024-01-25T12:13:07;9.45;;;7.66;;
71290;SDS011;59073;51.994;4.448;2024-01-25T12:15:34;10.72;;;8.18;;
71290;SDS011;59073;51.994;4.448;2024-01-25T12:18:00;9.78;;;7.54;;
71290;SDS011;59073;51.994;4.448;2024-01-25T12:20:27;10.40;;;7.89;;
71290;SDS011;59073;51.994;4.448;2024-01-25T12:22:53;10.06;;;7.50;;
71290;SDS011;59073;51.994;4.448;2024-01-25T12:25:19;9.33;;;7.23;;
71290;SDS011;59073;51.994;4.448;2024-01-25T12:27:44;9.28;;;7.29;;
71290;SDS011;59073;51.994;4.448;2024-01-25T12:30:14;8.61;;;6.61;;
71290;SDS011;59073;51.994;4.448;2024-01-25T12:32:40;9.29;;;6.99;;
71290;SDS011;59073;51.994;4.448;2024-01-25T12:35:05;10.87;;;8.03;;
71290;SDS011;59073;51.994;4.448;2024-01-25T12:37:32;10.23;;;7.33;;
71290;SDS011;59073;51.994;4.448;2024-01-25T12:39:58;11.54;;;8.32;;
71290;SDS011;59073;51.994;4.448;2024-01-25T12:42:23;11.55;;;8.36;;
71290;SDS011;59073;51.994;4.448;2024-01-25T12:44:51;11.75;;;8.47;;
71290;SDS011;59073;51.994;4.448;2024-01-25T12:47:21;11.73;;;8.43;;
71290;SDS011;59073;51.994;4.448;2024-01-25T12:49:47;10.92;;;7.82;;
71290;SDS011;59073;51.994;4.448;2024-01-25T12:52:13;11.51;;;8.24;;
71290;SDS011;59073;51.994;4.448;2024-01-25T12:54:40;11.34;;;7.99;;
71290;SDS011;59073;51.994;4.448;2024-01-25T12:57:06;13.40;;;9.15;;
71290;SDS011;59073;51.994;4.448;2024-01-25T12:59:33;11.72;;;8.17;;
71290;SDS011;59073;51.994;4.448;2024-01-25T13:02:00;11.70;;;8.17;;
71290;SDS011;59073;51.994;4.448;2024-01-25T13:04:25;11.15;;;7.90;;
71290;SDS011;59073;51.994;4.448;2024-01-25T13:06:52;11.04;;;7.84;;
71290;SDS011;59073;51.994;4.448;2024-01-25T13:09:19;11.97;;;8.17;;
71290;SDS011;59073;51.994;4.448;2024-01-25T13:11:45;11.04;;;7.64;;
71290;SDS011;59073;51.994;4.448;2024-01-25T13:14:11;10.14;;;7.47;;
71290;SDS011;59073;51.994;4.448;2024-01-25T13:16:37;9.95;;;7.59;;
71290;SDS011;59073;51.994;4.448;2024-01-25T13:19:02;9.82;;;7.50;;
71290;SDS011;59073;51.994;4.448;2024-01-25T13:21:27;8.80;;;6.90;;
71290;SDS011;59073;51.994;4.448;2024-01-25T13:23:53;9.70;;;7.59;;
71290;SDS011;59073;51.994;4.448;2024-01-25T13:26:18;9.89;;;7.79;;
71290;SDS011;59073;51.994;4.448;2024-01-25T13:28:44;8.30;;;6.93;;
71290;SDS011;59073;51.994;4.448;2024-01-25T13:31:09;8.33;;;6.90;;
71290;SDS011;59073;51.994;4.448;2024-01-25T13:33:35;8.20;;;6.72;;
71290;SDS011;59073;51.994;4.448;2024-01-25T13:36:00;8.04;;;6.54;;
71290;SDS011;59073;51.994;4.448;2024-01-25T13:38:26;7.84;;;6.49;;
71290;SDS011;59073;51.994;4.448;2024-01-25T13:40:51;8.54;;;7.13;;
71290;SDS011;59073;51.994;4.448;2024-01-25T13:43:17;9.88;;;8.09;;
71290;SDS011;59073;51.994;4.448;2024-01-25T13:45:43;9.46;;;7.80;;
71290;SDS011;59073;51.994;4.448;2024-01-25T13:48:08;9.64;;;7.85;;
71290;SDS011;59073;51.994;4.448;2024-01-25T13:50:33;9.16;;;7.78;;
71290;SDS011;59073;51.994;4.448;2024-01-25T13:52:59;8.27;;;7.10;;
71290;SDS011;59073;51.994;4.448;2024-01-25T13:55:24;8.60;;;7.47;;
71290;SDS011;59073;51.994;4.448;2024-01-25T13:57:50;9.11;;;8.04;;
71290;SDS011;59073;51.994;4.448;2024-01-25T14:00:15;9.47;;;8.64;;
71290;SDS011;59073;51.994;4.448;2024-01-25T14:02:41;10.66;;;9.62;;
71290;SDS011;59073;51.994;4.448;2024-01-25T14:05:11;10.31;;;9.54;;
71290;SDS011;59073;51.994;4.448;2024-01-25T14:07:37;10.27;;;9.74;;
71290;SDS011;59073;51.994;4.448;2024-01-25T14:10:02;10.30;;;10.03;;
71290;SDS011;59073;51.994;4.448;2024-01-25T14:12:28;10.43;;;10.10;;
71290;SDS011;59073;51.994;4.448;2024-01-25T14:14:54;12.05;;;11.59;;
71290;SDS011;59073;51.994;4.448;2024-01-25T14:17:19;12.58;;;12.12;;
71290;SDS011;59073;51.994;4.448;2024-01-25T14:19:44;12.37;;;12.12;;
71290;SDS011;59073;51.994;4.448;2024-01-25T14:22:10;12.08;;;11.97;;
71290;SDS011;59073;51.994;4.448;2024-01-25T14:24:36;14.24;;;13.70;;
71290;SDS011;59073;51.994;4.448;2024-01-25T14:27:01;14.04;;;13.62;;
71290;SDS011;59073;51.994;4.448;2024-01-25T14:29:27;16.91;;;16.14;;
71290;SDS011;59073;51.994;4.448;2024-01-25T14:31:57;17.68;;;17.03;;
71290;SDS011;59073;51.994;4.448;2024-01-25T14:34:23;20.46;;;19.24;;
71290;SDS011;59073;51.994;4.448;2024-01-25T14:36:48;20.06;;;19.21;;
71290;SDS011;59073;51.994;4.448;2024-01-25T14:39:15;20.00;;;19.31;;